createdAt,value
2023-05-08T00:01:42.086Z,67.89
2023-05-08T00:04:09.940Z,67.77
2023-05-08T00:06:37.888Z,67.77
2023-05-08T00:09:05.947Z,67.96
2023-05-08T00:11:34.085Z,67.99
2023-05-08T00:14:01.907Z,68.08
2023-05-08T00:16:29.920Z,67.72
2023-05-08T00:18:57.720Z,67.63
2023-05-08T00:21:25.537Z,67.70
2023-05-08T00:23:53.312Z,67.92
2023-05-08T00:26:21.829Z,67.87
2023-05-08T00:28:49.562Z,68.23
2023-05-08T00:31:17.377Z,68.03
2023-05-08T00:33:45.264Z,68.03
2023-05-08T00:36:15.678Z,68.34
2023-05-08T00:38:43.788Z,68.19
2023-05-08T00:41:11.584Z,68.20
2023-05-08T00:43:40.074Z,68.43
2023-05-08T00:46:09.988Z,68.20
2023-05-08T00:48:39.778Z,68.15
2023-05-08T00:51:09.539Z,68.07
2023-05-08T00:53:44.453Z,67.88
2023-05-08T00:56:15.365Z,67.88
2023-05-08T00:58:44.648Z,68.20
2023-05-08T01:01:12.955Z,68.10
2023-05-08T01:03:41.499Z,68.21
2023-05-08T01:06:09.430Z,68.43
2023-05-08T01:08:37.398Z,68.49
2023-05-08T01:11:21.734Z,68.10
2023-05-08T01:14:25.078Z,67.76
2023-05-08T01:17:11.751Z,67.94
2023-05-08T01:20:21.476Z,67.94
2023-05-08T01:23:21.115Z,68.31
2023-05-08T01:26:42.138Z,68.22
2023-05-08T01:29:33.993Z,68.31
2023-05-08T01:32:15.749Z,68.44
2023-05-08T01:34:47.793Z,68.73
2023-05-08T01:37:23.156Z,69.06
2023-05-08T01:40:13.187Z,68.77
2023-05-08T01:42:58.004Z,68.58
2023-05-08T01:45:39.176Z,68.64
2023-05-08T01:48:16.952Z,68.71
2023-05-08T01:50:52.707Z,68.54
2023-05-08T01:53:28.617Z,68.62
2023-05-08T01:56:08.063Z,68.20
2023-05-08T01:58:37.458Z,68.53
2023-05-08T02:01:06.038Z,68.40
2023-05-08T02:03:35.119Z,68.16
2023-05-08T02:06:04.483Z,68.39
2023-05-08T02:08:34.574Z,68.12
2023-05-08T02:11:06.024Z,68.38
2023-05-08T02:13:36.331Z,68.31
2023-05-08T02:16:06.964Z,68.22
2023-05-08T02:18:35.820Z,68.32
2023-05-08T02:21:06.959Z,68.27
2023-05-08T02:23:35.853Z,68.64
2023-05-08T02:26:05.564Z,68.46
2023-05-08T02:28:34.626Z,68.75
2023-05-08T02:31:03.137Z,68.34
2023-05-08T02:33:31.953Z,68.27
2023-05-08T02:36:00.658Z,68.49
2023-05-08T02:38:31.780Z,68.40
2023-05-08T02:41:03.922Z,68.46
2023-05-08T02:43:32.169Z,68.61
2023-05-08T02:46:46.743Z,68.57
2023-05-08T02:49:54.765Z,68.72
2023-05-08T02:52:30.799Z,68.96
2023-05-08T02:55:11.676Z,68.90
2023-05-08T02:57:42.059Z,69.05
2023-05-08T03:00:31.319Z,68.94
2023-05-08T03:03:08.304Z,68.93
2023-05-08T03:05:39.472Z,69.56
2023-05-08T03:08:16.052Z,69.20
2023-05-08T03:10:49.418Z,69.43
2023-05-08T03:13:20.929Z,69.51
2023-05-08T03:15:56.210Z,69.44
2023-05-08T03:18:52.211Z,69.09
2023-05-08T03:21:22.787Z,69.27
2023-05-08T03:23:53.874Z,69.33
2023-05-08T03:26:22.249Z,69.25
2023-05-08T03:28:52.461Z,68.86
2023-05-08T03:31:24.297Z,69.08
2023-05-08T03:33:55.443Z,69.09
2023-05-08T03:36:27.087Z,69.18
2023-05-08T03:38:55.298Z,69.20
2023-05-08T03:41:26.924Z,69.19
2023-05-08T03:43:56.032Z,69.29
2023-05-08T03:46:25.855Z,69.14
2023-05-08T03:48:54.347Z,69.27
2023-05-08T03:51:22.547Z,69.27
2023-05-08T03:53:50.891Z,69.17
2023-05-08T03:56:19.490Z,69.38
2023-05-08T03:59:29.360Z,69.14
2023-05-08T04:02:30.707Z,69.01
2023-05-08T04:05:42.916Z,69.16
2023-05-08T04:08:29.739Z,69.30
2023-05-08T04:11:18.065Z,69.53
2023-05-08T04:13:51.800Z,69.78
2023-05-08T04:16:26.895Z,69.90
2023-05-08T04:19:03.887Z,69.85
2023-05-08T04:21:35.435Z,70.09
2023-05-08T04:24:10.205Z,70.25
2023-05-08T04:26:38.828Z,70.42
2023-05-08T04:29:07.451Z,70.18
2023-05-08T04:31:38.762Z,70.25
2023-05-08T04:34:14.426Z,70.08
2023-05-08T04:36:44.726Z,70.04
2023-05-08T04:39:12.698Z,70.27
2023-05-08T04:41:42.603Z,70.00
2023-05-08T04:44:11.500Z,69.86
2023-05-08T04:46:39.330Z,70.01
2023-05-08T04:49:07.404Z,69.95
2023-05-08T04:51:35.732Z,69.88
2023-05-08T04:54:05.399Z,69.99
2023-05-08T04:56:33.180Z,70.02
2023-05-08T04:59:07.296Z,70.25
2023-05-08T05:01:35.313Z,70.32
2023-05-08T05:04:03.787Z,70.32
2023-05-08T05:06:33.190Z,70.32
2023-05-08T05:09:01.642Z,70.41
2023-05-08T05:11:31.579Z,70.27
2023-05-08T05:13:59.879Z,70.37
2023-05-08T05:16:27.967Z,70.21
2023-05-08T05:18:55.955Z,70.16
2023-05-08T05:21:23.700Z,70.39
2023-05-08T05:23:52.531Z,70.57
2023-05-08T05:26:23.315Z,70.40
2023-05-08T05:28:52.872Z,70.43
2023-05-08T05:31:20.930Z,70.42
2023-05-08T05:33:50.671Z,70.23
2023-05-08T05:36:19.284Z,70.38
2023-05-08T05:38:48.645Z,70.45
2023-05-08T05:41:16.472Z,70.39
2023-05-08T05:43:48.596Z,70.54
2023-05-08T05:46:16.490Z,70.45
2023-05-08T05:48:44.376Z,70.39
2023-05-08T05:51:12.348Z,70.27
2023-05-08T05:53:43.499Z,70.66
2023-05-08T05:56:11.473Z,70.64
2023-05-08T05:58:40.966Z,70.38
2023-05-08T06:01:10.467Z,70.71
2023-05-08T06:03:45.906Z,70.52
2023-05-08T06:06:14.546Z,70.62
2023-05-08T06:08:42.285Z,70.56
2023-05-08T06:11:10.195Z,70.44
2023-05-08T06:13:42.473Z,70.37
2023-05-08T06:16:10.289Z,70.46
2023-05-08T06:18:38.083Z,70.53
2023-05-08T06:21:12.020Z,70.38
2023-05-08T06:23:39.791Z,70.09
2023-05-08T06:26:07.472Z,69.93
2023-05-08T06:28:38.760Z,70.05
2023-05-08T06:31:09.050Z,70.24
2023-05-08T06:33:36.859Z,69.96
2023-05-08T06:36:06.835Z,70.07
2023-05-08T06:38:34.676Z,70.03
2023-05-08T06:41:03.956Z,69.85
2023-05-08T06:43:31.787Z,69.95
2023-05-08T06:46:01.528Z,69.75
2023-05-08T06:48:36.311Z,69.95
2023-05-08T06:51:07.442Z,69.87
2023-05-08T06:53:37.061Z,69.89
2023-05-08T06:56:07.712Z,69.76
2023-05-08T06:58:37.158Z,69.73
2023-05-08T07:01:04.953Z,69.68
2023-05-08T07:03:32.812Z,69.59
2023-05-08T07:06:00.497Z,69.77
2023-05-08T07:08:32.175Z,69.59
2023-05-08T07:10:59.947Z,69.61
2023-05-08T07:13:28.629Z,69.41
2023-05-08T07:16:01.162Z,69.41
2023-05-08T07:18:28.924Z,69.36
2023-05-08T07:20:58.297Z,69.21
2023-05-08T07:23:27.509Z,69.20
2023-05-08T07:25:55.399Z,68.94
2023-05-08T07:28:23.280Z,69.02
2023-05-08T07:30:51.617Z,68.57
2023-05-08T07:33:21.459Z,68.84
2023-05-08T07:35:49.436Z,68.64
2023-05-08T07:38:17.338Z,68.55
2023-05-08T07:40:47.774Z,68.66
2023-05-08T07:43:15.537Z,68.34
2023-05-08T07:45:43.292Z,68.42
2023-05-08T07:48:11.871Z,68.33
2023-05-08T07:50:39.690Z,68.39
2023-05-08T07:53:14.082Z,68.14
2023-05-08T07:55:42.215Z,68.27
2023-05-08T07:58:10.053Z,68.24
2023-05-08T08:00:37.883Z,68.42
2023-05-08T08:03:06.196Z,68.26
2023-05-08T08:05:34.658Z,67.96
2023-05-08T08:08:02.686Z,68.14
2023-05-08T08:10:32.396Z,67.90
2023-05-08T08:13:08.547Z,68.15
2023-05-08T08:15:36.305Z,67.92
2023-05-08T08:18:06.824Z,67.88
2023-05-08T08:20:34.630Z,67.79
2023-05-08T08:23:10.821Z,67.71
2023-05-08T08:25:40.828Z,67.55
2023-05-08T08:28:08.962Z,67.49
2023-05-08T08:30:39.717Z,67.26
2023-05-08T08:33:10.776Z,66.99
2023-05-08T08:35:40.706Z,67.18
2023-05-08T08:38:11.513Z,67.23
2023-05-08T08:40:42.636Z,67.14
2023-05-08T08:43:13.420Z,67.00
2023-05-08T08:45:41.218Z,66.97
2023-05-08T08:48:12.422Z,66.77
2023-05-08T08:50:44.319Z,66.57
2023-05-08T08:53:17.606Z,66.42
2023-05-08T08:55:50.388Z,66.32
2023-05-08T08:58:28.105Z,66.16
2023-05-08T09:00:56.374Z,66.18
2023-05-08T09:03:24.287Z,66.41
2023-05-08T09:06:01.445Z,66.36
2023-05-08T09:08:37.535Z,66.55
2023-05-08T09:11:05.374Z,66.50
2023-05-08T09:13:33.369Z,65.89
2023-05-08T09:16:03.564Z,65.65
2023-05-08T09:18:36.144Z,65.75
2023-05-08T09:21:06.913Z,65.46
2023-05-08T09:23:54.240Z,65.34
2023-05-08T09:26:40.350Z,64.99
2023-05-08T09:29:13.586Z,65.22
2023-05-08T09:31:44.630Z,65.16
2023-05-08T09:34:28.489Z,64.59
2023-05-08T09:37:20.559Z,64.62
2023-05-08T09:39:50.087Z,65.04
2023-05-08T09:42:19.542Z,64.62
2023-05-08T09:44:53.449Z,64.40
2023-05-08T09:47:27.038Z,64.24
2023-05-08T09:50:04.827Z,64.15
2023-05-08T09:52:35.364Z,64.48
2023-05-08T09:55:10.836Z,64.30
2023-05-08T09:58:01.829Z,63.82
2023-05-08T10:00:30.026Z,63.98
2023-05-08T10:03:02.483Z,64.00
2023-05-08T10:05:37.235Z,63.45
2023-05-08T10:08:23.645Z,63.05
2023-05-08T10:10:54.693Z,63.31
2023-05-08T10:13:29.664Z,63.42
2023-05-08T10:16:04.579Z,63.40
2023-05-08T10:18:37.938Z,63.19
2023-05-08T10:21:10.825Z,63.02
2023-05-08T10:23:39.944Z,63.00
2023-05-08T10:26:16.005Z,63.00
2023-05-08T10:29:01.430Z,62.89
2023-05-08T10:31:36.409Z,63.07
2023-05-08T10:34:07.376Z,62.97
2023-05-08T10:36:37.377Z,62.97
2023-05-08T10:39:06.129Z,62.94
2023-05-08T10:41:37.094Z,62.52
2023-05-08T10:44:08.191Z,62.59
2023-05-08T10:46:53.094Z,62.55
2023-05-08T10:50:06.264Z,62.61
2023-05-08T10:52:54.932Z,62.99
2023-05-08T10:55:31.737Z,62.30
2023-05-08T10:58:09.914Z,62.58
2023-05-08T11:00:52.358Z,62.24
2023-05-08T11:03:31.322Z,62.18
2023-05-08T11:06:02.380Z,62.18
2023-05-08T11:08:31.748Z,61.54
2023-05-08T11:11:03.846Z,61.59
2023-05-08T11:13:56.778Z,60.64
2023-05-08T11:17:03.371Z,60.40
2023-05-08T11:19:34.015Z,60.68
2023-05-08T11:22:23.553Z,60.66
2023-05-08T11:25:12.876Z,60.56
2023-05-08T11:27:49.963Z,60.41
2023-05-08T11:30:42.906Z,60.27
2023-05-08T11:33:14.552Z,60.71
2023-05-08T11:35:55.981Z,60.68
2023-05-08T11:38:28.858Z,61.58
2023-05-08T11:41:09.316Z,61.03
2023-05-08T11:44:09.130Z,60.43
2023-05-08T11:46:56.933Z,60.61
2023-05-08T11:49:29.493Z,60.86
2023-05-08T11:52:00.295Z,60.50
2023-05-08T11:54:31.533Z,60.33
2023-05-08T11:57:01.855Z,59.89
2023-05-08T11:59:35.378Z,60.10
2023-05-08T12:04:44.575Z,59.12
2023-05-08T12:07:14.268Z,59.13
2023-05-08T12:09:42.313Z,59.05
2023-05-08T12:12:10.101Z,58.68
2023-05-08T12:14:39.889Z,58.16
2023-05-08T12:17:09.646Z,58.26
2023-05-08T12:19:39.308Z,58.11
2023-05-08T12:22:10.575Z,58.05
2023-05-08T12:24:39.420Z,58.23
2023-05-08T12:27:07.331Z,58.54
2023-05-08T12:29:37.637Z,58.15
2023-05-08T12:32:05.558Z,57.84
2023-05-08T12:34:36.004Z,57.71
2023-05-08T12:37:07.390Z,57.49
2023-05-08T12:39:40.341Z,57.53
2023-05-08T12:42:08.094Z,57.18
2023-05-08T12:44:35.865Z,56.65
2023-05-08T12:47:12.568Z,56.72
2023-05-08T12:49:40.355Z,56.53
2023-05-08T12:52:14.050Z,56.29
2023-05-08T12:54:48.536Z,56.18
2023-05-08T12:57:19.760Z,56.29
2023-05-08T12:59:47.589Z,55.90
2023-05-08T13:02:24.147Z,56.13
2023-05-08T13:04:59.995Z,55.83
2023-05-08T13:07:34.262Z,56.21
2023-05-08T13:10:05.854Z,55.84
2023-05-08T13:12:34.565Z,55.86
2023-05-08T13:15:05.115Z,55.85
2023-05-08T13:17:33.127Z,55.46
2023-05-08T13:20:00.870Z,55.57
2023-05-08T13:22:28.708Z,55.39
2023-05-08T13:24:56.364Z,55.49
2023-05-08T13:27:24.333Z,55.03
2023-05-08T13:29:55.554Z,55.13
2023-05-08T13:32:30.277Z,55.42
2023-05-08T13:35:00.276Z,55.07
2023-05-08T13:37:28.858Z,54.78
2023-05-08T13:39:58.661Z,54.96
2023-05-08T13:42:26.514Z,55.10
2023-05-08T13:44:54.269Z,54.72
2023-05-08T13:47:22.137Z,54.43
2023-05-08T13:49:50.349Z,54.36
2023-05-08T13:52:20.083Z,54.32
2023-05-08T13:54:47.864Z,54.53
2023-05-08T13:57:17.655Z,54.37
2023-05-08T13:59:45.415Z,54.28
2023-05-08T14:02:15.739Z,54.13
2023-05-08T14:04:43.737Z,54.69
2023-05-08T14:07:13.083Z,54.39
2023-05-08T14:09:40.944Z,54.05
2023-05-08T14:12:08.848Z,54.67
2023-05-08T14:14:36.794Z,54.21
2023-05-08T14:17:05.735Z,54.19
2023-05-08T14:19:40.092Z,54.29
2023-05-08T14:22:10.157Z,54.26
2023-05-08T14:24:38.029Z,54.16
2023-05-08T14:27:06.056Z,54.01
2023-05-08T14:29:36.591Z,53.71
2023-05-08T14:32:05.553Z,54.01
2023-05-08T14:34:33.538Z,53.54
2023-05-08T14:37:01.243Z,53.90
2023-05-08T14:39:30.917Z,53.29
2023-05-08T14:44:34.898Z,53.40
2023-05-08T14:47:06.767Z,53.07
2023-05-08T14:49:38.790Z,53.33
2023-05-08T14:52:09.208Z,53.33
2023-05-08T14:54:41.518Z,53.45
2023-05-08T14:57:09.421Z,53.07
2023-05-08T14:59:39.803Z,53.21
2023-05-08T15:02:13.500Z,53.57
2023-05-08T15:04:42.503Z,53.11
2023-05-08T15:07:11.589Z,53.48
2023-05-08T15:09:39.596Z,53.67
2023-05-08T15:12:08.934Z,53.22
2023-05-08T15:14:36.833Z,53.65
2023-05-08T15:17:05.167Z,53.83
2023-05-08T15:19:33.055Z,53.70
2023-05-08T15:22:01.122Z,53.35
2023-05-08T15:24:28.856Z,53.44
2023-05-08T15:26:56.662Z,53.63
2023-05-08T15:29:31.730Z,53.44
2023-05-08T15:31:59.736Z,53.46
2023-05-08T15:34:32.438Z,53.61
2023-05-08T15:37:00.885Z,53.40
2023-05-08T15:39:34.397Z,53.66
2023-05-08T15:42:02.219Z,53.25
2023-05-08T15:44:41.684Z,53.03
2023-05-08T15:47:19.472Z,53.47
2023-05-08T15:49:48.945Z,53.13
2023-05-08T15:52:18.782Z,53.12
2023-05-08T15:54:47.568Z,53.54
2023-05-08T15:57:16.012Z,53.39
2023-05-08T15:59:43.874Z,53.04
2023-05-08T16:02:11.649Z,53.19
2023-05-08T16:04:39.899Z,53.14
2023-05-08T16:07:07.922Z,53.16
2023-05-08T16:09:36.083Z,52.85
2023-05-08T16:12:04.086Z,52.79
2023-05-08T16:14:32.069Z,52.86
2023-05-08T16:16:59.865Z,52.81
2023-05-08T16:19:27.820Z,53.09
2023-05-08T16:21:55.628Z,52.84
2023-05-08T16:24:23.744Z,53.01
2023-05-08T16:26:51.682Z,53.53
2023-05-08T16:29:22.392Z,53.22
2023-05-08T16:31:50.554Z,53.62
2023-05-08T16:34:41.851Z,53.03
2023-05-08T16:37:42.780Z,53.56
2023-05-08T16:40:13.051Z,53.23
2023-05-08T16:42:40.862Z,53.34
2023-05-08T16:45:09.294Z,53.31
2023-05-08T16:47:38.849Z,53.68
2023-05-08T16:50:08.724Z,53.68
2023-05-08T16:52:36.776Z,53.84
2023-05-08T16:55:04.915Z,53.50
2023-05-08T16:57:32.731Z,53.81
2023-05-08T17:00:02.152Z,53.87
2023-05-08T17:02:32.787Z,53.72
2023-05-08T17:05:00.619Z,53.54
2023-05-08T17:07:28.346Z,53.58
2023-05-08T17:09:57.657Z,53.58
2023-05-08T17:12:25.470Z,53.65
2023-05-08T17:15:13.050Z,53.51
2023-05-08T17:18:15.748Z,53.85
2023-05-08T17:20:43.897Z,53.61
2023-05-08T17:23:13.088Z,54.01
2023-05-08T17:25:43.755Z,53.81
2023-05-08T17:28:13.716Z,53.94
2023-05-08T17:30:41.546Z,54.02
2023-05-08T17:33:09.419Z,53.99
2023-05-08T17:35:37.252Z,54.27
2023-05-08T17:38:07.264Z,53.91
2023-05-08T17:40:36.797Z,54.08
2023-05-08T17:43:10.538Z,54.04
2023-05-08T17:45:38.937Z,53.99
2023-05-08T17:48:06.929Z,54.03
2023-05-08T17:50:35.357Z,54.16
2023-05-08T17:53:03.050Z,54.09
2023-05-08T17:55:31.717Z,54.08
2023-05-08T17:57:59.728Z,53.98
2023-05-08T18:00:27.460Z,54.15
2023-05-08T18:02:55.436Z,54.45
2023-05-08T18:05:23.368Z,54.31
2023-05-08T18:07:53.943Z,54.12
2023-05-08T18:10:21.989Z,54.23
2023-05-08T18:12:49.827Z,54.19
2023-05-08T18:15:17.612Z,54.24
2023-05-08T18:17:45.436Z,54.48
2023-05-08T18:20:13.445Z,54.71
2023-05-08T18:22:41.681Z,54.59
2023-05-08T18:25:09.705Z,54.35
2023-05-08T18:27:43.819Z,54.63
2023-05-08T18:30:19.856Z,54.66
2023-05-08T18:32:48.115Z,54.55
2023-05-08T18:35:17.793Z,54.61
2023-05-08T18:37:48.689Z,54.59
2023-05-08T18:40:17.063Z,54.56
2023-05-08T18:42:44.839Z,54.77
2023-05-08T18:45:14.410Z,54.78
2023-05-08T18:47:49.035Z,54.88
2023-05-08T18:50:18.151Z,54.88
2023-05-08T18:52:53.539Z,54.88
2023-05-08T18:55:27.424Z,54.77
2023-05-08T18:58:11.497Z,55.02
2023-05-08T19:00:39.959Z,54.93
2023-05-08T19:03:07.866Z,55.19
2023-05-08T19:05:36.311Z,55.62
2023-05-08T19:08:04.453Z,55.51
2023-05-08T19:10:32.375Z,55.57
2023-05-08T19:13:04.093Z,55.56
2023-05-08T19:15:38.903Z,55.35
2023-05-08T19:18:09.605Z,55.09
2023-05-08T19:20:41.115Z,54.92
2023-05-08T19:23:14.907Z,54.87
2023-05-08T19:25:45.741Z,54.99
2023-05-08T19:28:15.446Z,54.81
2023-05-08T19:30:45.057Z,54.94
2023-05-08T19:33:19.072Z,54.78
2023-05-08T19:35:48.768Z,54.69
2023-05-08T19:38:17.023Z,54.87
2023-05-08T19:40:56.403Z,54.94
2023-05-08T19:43:26.728Z,54.96
2023-05-08T19:45:56.049Z,55.16
2023-05-08T19:48:25.983Z,55.42
2023-05-08T19:50:55.068Z,55.40
2023-05-08T19:53:23.814Z,55.04
2023-05-08T19:55:51.932Z,55.33
2023-05-08T19:58:19.858Z,55.26
2023-05-08T20:03:19.259Z,55.36
2023-05-08T20:05:53.802Z,55.34
2023-05-08T20:08:23.918Z,55.47
2023-05-08T20:10:55.655Z,55.67
2023-05-08T20:13:25.359Z,55.89
2023-05-08T20:15:55.548Z,55.96
2023-05-08T20:18:23.622Z,56.18
2023-05-08T20:20:51.692Z,56.36
2023-05-08T20:23:19.807Z,56.18
2023-05-08T20:25:50.589Z,56.25
2023-05-08T20:28:22.325Z,56.24
2023-05-08T20:30:52.856Z,56.18
2023-05-08T20:35:55.020Z,56.16
2023-05-08T20:38:24.778Z,56.08
2023-05-08T20:40:55.834Z,56.00
2023-05-08T20:43:26.757Z,56.06
2023-05-08T20:45:56.467Z,56.30
2023-05-08T20:48:24.571Z,56.10
2023-05-08T20:50:52.885Z,56.17
2023-05-08T20:53:26.119Z,56.18
2023-05-08T20:56:01.948Z,56.13
2023-05-08T20:58:30.524Z,56.27
2023-05-08T21:00:58.451Z,56.52
2023-05-08T21:03:26.394Z,56.49
2023-05-08T21:05:57.032Z,56.51
2023-05-08T21:08:26.597Z,56.57
2023-05-08T21:10:54.499Z,56.62
2023-05-08T21:13:22.357Z,56.59
2023-05-08T21:15:51.086Z,56.46
2023-05-08T21:18:19.100Z,56.54
2023-05-08T21:20:50.338Z,56.61
2023-05-08T21:23:19.485Z,56.61
2023-05-08T21:25:48.432Z,56.64
2023-05-08T21:28:19.067Z,56.59
2023-05-08T21:30:48.176Z,56.66
2023-05-08T21:33:16.065Z,56.71
2023-05-08T21:35:46.829Z,56.47
2023-05-08T21:38:17.590Z,56.76
2023-05-08T21:40:45.654Z,56.81
2023-05-08T21:43:14.427Z,56.66
2023-05-08T21:45:42.397Z,56.49
2023-05-08T21:48:10.370Z,56.49
2023-05-08T21:50:38.289Z,56.43
2023-05-08T21:53:06.651Z,56.34
2023-05-08T21:55:34.773Z,56.37
2023-05-08T21:58:02.787Z,56.30
2023-05-08T22:00:32.916Z,56.32
2023-05-08T22:03:01.106Z,56.44
2023-05-08T22:05:29.300Z,56.29
2023-05-08T22:07:57.395Z,56.21
2023-05-08T22:10:26.007Z,56.35
2023-05-08T22:12:54.009Z,56.17
2023-05-08T22:15:29.557Z,56.02
2023-05-08T22:17:59.607Z,56.24
2023-05-08T22:20:27.910Z,56.22
2023-05-08T22:22:55.998Z,56.11
2023-05-08T22:25:25.191Z,56.04
2023-05-08T22:27:53.372Z,56.11
2023-05-08T22:30:21.444Z,56.01
2023-05-08T22:32:56.088Z,55.80
2023-05-08T22:35:26.834Z,55.83
2023-05-08T22:37:57.380Z,55.82
2023-05-08T22:40:26.109Z,55.92
2023-05-08T22:42:58.914Z,55.78
2023-05-08T22:45:27.578Z,55.81
2023-05-08T22:47:56.029Z,55.85
2023-05-08T22:50:23.899Z,55.75
2023-05-08T22:52:52.064Z,55.83
2023-05-08T22:55:20.134Z,55.95
2023-05-08T22:57:48.025Z,55.88
2023-05-08T23:00:16.480Z,55.83
2023-05-08T23:02:44.365Z,55.72
2023-05-08T23:05:12.685Z,55.98
2023-05-08T23:07:41.693Z,55.90
2023-05-08T23:10:10.533Z,55.93
2023-05-08T23:12:38.454Z,55.98
2023-05-08T23:15:07.855Z,56.13
2023-05-08T23:17:36.072Z,56.11
2023-05-08T23:20:05.807Z,56.16
2023-05-08T23:22:34.030Z,56.23
2023-05-08T23:25:04.451Z,56.37
2023-05-08T23:27:32.519Z,56.40
2023-05-08T23:30:01.072Z,56.32
2023-05-08T23:32:29.178Z,56.28
2023-05-08T23:34:57.608Z,56.22
2023-05-08T23:37:25.386Z,56.53
2023-05-08T23:39:53.173Z,56.38
2023-05-08T23:42:20.880Z,56.52
2023-05-08T23:44:48.605Z,56.58
2023-05-08T23:47:18.756Z,56.62
2023-05-08T23:49:49.512Z,56.77
2023-05-08T23:52:17.608Z,56.61
2023-05-08T23:54:45.622Z,56.56
2023-05-08T23:57:13.493Z,56.50
2023-05-08T23:59:41.175Z,56.74
